createdAt,value
2018-07-23T00:00:01.011Z,37.7
2018-07-23T00:00:05.225Z,38.26
2018-07-23T00:00:09.431Z,0
2018-07-23T00:00:13.741Z,0
2018-07-23T00:00:17.837Z,0
2018-07-23T00:00:22.034Z,37.52
2018-07-23T00:00:26.293Z,0
2018-07-23T00:00:30.615Z,0
2018-07-23T00:00:34.710Z,0
2018-07-23T00:00:38.595Z,39.33
2018-07-23T00:00:42.798Z,37.79
2018-07-23T00:00:46.994Z,38.69
2018-07-23T00:00:51.200Z,38.03
2018-07-23T00:00:55.295Z,0
2018-07-23T00:00:59.600Z,0
2018-07-23T00:01:03.698Z,0
2018-07-23T00:01:07.582Z,0
2018-07-23T00:01:11.892Z,0
2018-07-23T00:01:16.099Z,0
2018-07-23T00:01:20.412Z,0
2018-07-23T00:01:24.725Z,0
2018-07-23T00:01:28.932Z,37.69
2018-07-23T00:01:33.038Z,36.58
2018-07-23T00:01:37.345Z,38.18
2018-07-23T00:01:41.652Z,99.99
2018-07-23T00:01:45.853Z,99.99
2018-07-23T00:01:50.055Z,99.99
2018-07-23T00:01:54.257Z,0
2018-07-23T00:01:58.484Z,0
2018-07-23T00:02:02.736Z,0
2018-07-23T00:02:06.830Z,0
2018-07-23T00:02:11.140Z,0
2018-07-23T00:02:15.453Z,37.81
2018-07-23T00:02:19.759Z,38.22
2018-07-23T00:02:23.963Z,37.87
2018-07-23T00:02:28.059Z,0
2018-07-23T00:02:32.162Z,0
2018-07-23T00:02:36.464Z,0
2018-07-23T00:02:40.666Z,0
2018-07-23T00:02:44.972Z,0
2018-07-23T00:02:49.172Z,99.99
2018-07-23T00:02:53.376Z,0
2018-07-23T00:02:57.584Z,0
2018-07-23T00:03:01.896Z,0
2018-07-23T00:03:05.993Z,0
2018-07-23T00:03:10.308Z,0
2018-07-23T00:03:14.619Z,0
2018-07-23T00:03:18.821Z,0
2018-07-23T00:03:23.019Z,0
2018-07-23T00:03:27.221Z,0
2018-07-23T00:03:31.527Z,0
2018-07-23T00:03:35.728Z,0
2018-07-23T00:03:39.834Z,0
2018-07-23T00:03:44.138Z,0
2018-07-23T00:03:48.444Z,0
2018-07-23T00:03:52.748Z,0
2018-07-23T00:03:56.846Z,0
2018-07-23T00:04:01.048Z,0
2018-07-23T00:04:05.428Z,0
2018-07-23T00:04:09.530Z,0
2018-07-23T00:04:13.741Z,0
2018-07-23T00:04:17.956Z,0
2018-07-23T00:04:22.161Z,0
2018-07-23T00:04:26.367Z,0
2018-07-23T00:04:30.573Z,0
2018-07-23T00:04:34.778Z,0
2018-07-23T00:04:38.868Z,0
2018-07-23T00:04:43.118Z,0
2018-07-23T00:04:47.434Z,0
2018-07-23T00:04:51.529Z,0
2018-07-23T00:04:55.730Z,0
2018-07-23T00:04:59.935Z,0
2018-07-23T00:05:03.922Z,0
2018-07-23T00:05:08.126Z,0
2018-07-23T00:05:12.224Z,0
2018-07-23T00:05:16.539Z,0
2018-07-23T00:05:20.846Z,0
2018-07-23T00:05:25.058Z,0
2018-07-23T00:05:29.264Z,0
2018-07-23T00:05:33.577Z,0
2018-07-23T00:05:37.676Z,0
2018-07-23T00:05:41.769Z,0
2018-07-23T00:05:46.084Z,0
2018-07-23T00:05:49.967Z,0
2018-07-23T00:05:54.169Z,0
2018-07-23T00:05:58.375Z,0
2018-07-23T00:06:02.504Z,0
2018-07-23T00:06:06.600Z,0
2018-07-23T00:06:10.806Z,0
2018-07-23T00:06:15.110Z,0
2018-07-23T00:06:19.319Z,0
2018-07-23T00:06:23.630Z,0
2018-07-23T00:06:27.941Z,0
2018-07-23T00:06:32.148Z,0
2018-07-23T00:06:36.357Z,0
2018-07-23T00:06:40.603Z,0
2018-07-23T00:06:44.821Z,0
2018-07-23T00:06:49.017Z,0
2018-07-23T00:06:53.119Z,0
2018-07-23T00:06:57.316Z,0
2018-07-23T00:07:01.414Z,0
2018-07-23T00:07:05.518Z,0
2018-07-23T00:07:09.717Z,0
2018-07-23T00:07:13.706Z,0
2018-07-23T00:07:18.027Z,0
2018-07-23T00:07:22.227Z,0
2018-07-23T00:07:26.317Z,0
2018-07-23T00:07:30.626Z,0
2018-07-23T00:07:34.930Z,0
2018-07-23T00:07:39.134Z,0
2018-07-23T00:07:43.339Z,0
2018-07-23T00:07:47.541Z,0
2018-07-23T00:07:51.528Z,0
2018-07-23T00:07:55.731Z,0
2018-07-23T00:08:00.040Z,0
2018-07-23T00:08:04.453Z,0
2018-07-23T00:08:08.656Z,0
2018-07-23T00:08:12.856Z,0
2018-07-23T00:08:16.844Z,0
2018-07-23T00:08:20.940Z,0
2018-07-23T00:08:25.148Z,0
2018-07-23T00:08:29.362Z,0
2018-07-23T00:08:33.681Z,0
2018-07-23T00:08:37.990Z,0
2018-07-23T00:08:42.191Z,0
2018-07-23T00:08:46.392Z,0
2018-07-23T00:08:50.595Z,0
2018-07-23T00:08:54.914Z,0
2018-07-23T00:08:59.017Z,0
2018-07-23T00:09:03.223Z,0
2018-07-23T00:09:07.424Z,0
2018-07-23T00:09:11.625Z,0
2018-07-23T00:09:15.938Z,0
2018-07-23T00:09:20.036Z,0
2018-07-23T00:09:24.257Z,0
2018-07-23T00:09:28.350Z,0
2018-07-23T00:09:32.550Z,0
2018-07-23T00:09:36.749Z,0
2018-07-23T00:09:41.051Z,0
2018-07-23T00:09:45.150Z,0
2018-07-23T00:09:49.357Z,0
2018-07-23T00:09:53.452Z,0
2018-07-23T00:09:57.762Z,0
2018-07-23T00:10:01.973Z,0
2018-07-23T00:10:06.253Z,0
2018-07-23T00:10:10.472Z,0
2018-07-23T00:10:14.780Z,0
2018-07-23T00:10:18.882Z,0
2018-07-23T00:10:23.088Z,0
2018-07-23T00:10:27.395Z,0
2018-07-23T00:10:31.753Z,0
2018-07-23T00:10:36.056Z,0
2018-07-23T00:10:40.255Z,0
2018-07-23T00:10:44.563Z,0
2018-07-23T00:10:48.566Z,0
2018-07-23T00:10:52.875Z,0
2018-07-23T00:10:57.075Z,0
2018-07-23T00:11:01.289Z,0
2018-07-23T00:11:05.491Z,0
2018-07-23T00:11:09.482Z,0
2018-07-23T00:11:13.793Z,0
2018-07-23T00:11:17.886Z,0
2018-07-23T00:11:22.090Z,0
2018-07-23T00:11:26.417Z,0
2018-07-23T00:11:30.619Z,0
2018-07-23T00:11:34.819Z,0
2018-07-23T00:11:39.124Z,0
2018-07-23T00:11:43.322Z,0
2018-07-23T00:11:47.632Z,0
2018-07-23T00:11:51.729Z,0
2018-07-23T00:11:55.946Z,0
2018-07-23T00:12:00.150Z,0
2018-07-23T00:12:04.244Z,0
2018-07-23T00:12:08.338Z,0
2018-07-23T00:12:12.539Z,0
2018-07-23T00:12:16.635Z,0
2018-07-23T00:12:20.940Z,0
2018-07-23T00:12:24.933Z,0
2018-07-23T00:12:29.245Z,0
2018-07-23T00:12:33.455Z,0
2018-07-23T00:12:37.653Z,0
2018-07-23T00:12:41.876Z,0
2018-07-23T00:12:46.198Z,0
2018-07-23T00:12:50.294Z,0
2018-07-23T00:12:54.395Z,0
2018-07-23T00:12:58.596Z,0
2018-07-23T00:13:02.688Z,0
2018-07-23T00:13:06.993Z,0
2018-07-23T00:13:11.202Z,0
2018-07-23T00:13:15.408Z,0
2018-07-23T00:13:19.716Z,0
2018-07-23T00:13:24.037Z,0
2018-07-23T00:13:28.241Z,0
2018-07-23T00:13:32.544Z,0
2018-07-23T00:13:36.652Z,0
2018-07-23T00:13:40.964Z,0
2018-07-23T00:13:45.278Z,0
2018-07-23T00:13:49.262Z,0
2018-07-23T00:13:53.367Z,0
2018-07-23T00:13:57.466Z,0
2018-07-23T00:14:01.667Z,0
2018-07-23T00:14:05.548Z,0
2018-07-23T00:14:09.753Z,0
2018-07-23T00:14:14.060Z,0
2018-07-23T00:14:18.269Z,0
2018-07-23T00:14:22.468Z,0
2018-07-23T00:14:26.673Z,0
2018-07-23T00:14:30.777Z,0
2018-07-23T00:14:34.992Z,0
2018-07-23T00:14:39.296Z,0
2018-07-23T00:14:43.507Z,0
2018-07-23T00:14:47.612Z,0
2018-07-23T00:14:51.709Z,0
2018-07-23T00:14:55.806Z,0
2018-07-23T00:15:00.018Z,0
2018-07-23T00:15:04.017Z,0
2018-07-23T00:15:08.124Z,0
2018-07-23T00:15:12.437Z,0
2018-07-23T00:15:16.746Z,0
2018-07-23T00:15:21.051Z,0
2018-07-23T00:15:25.368Z,0
2018-07-23T00:15:29.676Z,0
2018-07-23T00:15:33.986Z,0
2018-07-23T00:15:38.293Z,0
2018-07-23T00:15:42.602Z,0
2018-07-23T00:15:46.801Z,0
2018-07-23T00:15:50.790Z,0
2018-07-23T00:15:54.993Z,0
2018-07-23T00:15:59.191Z,0
2018-07-23T00:16:03.397Z,0
2018-07-23T00:16:07.600Z,0
2018-07-23T00:16:11.806Z,0
2018-07-23T00:16:15.899Z,0
2018-07-23T00:16:20.099Z,0
2018-07-23T00:16:24.307Z,0
2018-07-23T00:16:28.404Z,0
2018-07-23T00:16:32.496Z,0
2018-07-23T00:16:36.588Z,0
2018-07-23T00:16:40.723Z,0
2018-07-23T00:16:45.029Z,0
2018-07-23T00:16:49.341Z,0
2018-07-23T00:16:53.439Z,0
2018-07-23T00:16:57.640Z,0
2018-07-23T00:17:01.892Z,0
2018-07-23T00:17:05.884Z,0
2018-07-23T00:17:10.196Z,0
2018-07-23T00:17:14.518Z,0
2018-07-23T00:17:18.617Z,0
2018-07-23T00:17:22.918Z,0
2018-07-23T00:17:27.011Z,0
2018-07-23T00:17:31.111Z,0
2018-07-23T00:17:35.205Z,0
2018-07-23T00:17:39.405Z,0
2018-07-23T00:17:43.609Z,0
2018-07-23T00:17:47.809Z,0
2018-07-23T00:17:52.011Z,0
2018-07-23T00:17:56.217Z,0
2018-07-23T00:18:00.200Z,0
2018-07-23T00:18:04.403Z,0
2018-07-23T00:18:08.604Z,0
2018-07-23T00:18:12.916Z,0
2018-07-23T00:18:17.010Z,0
2018-07-23T00:18:21.208Z,0
2018-07-23T00:18:25.529Z,0
2018-07-23T00:18:29.727Z,0
2018-07-23T00:18:33.820Z,0
2018-07-23T00:18:38.021Z,0
2018-07-23T00:18:42.122Z,0
2018-07-23T00:18:46.330Z,0
2018-07-23T00:18:50.544Z,0
2018-07-23T00:18:54.741Z,0
2018-07-23T00:18:58.834Z,0
2018-07-23T00:19:03.033Z,0
2018-07-23T00:19:07.131Z,0
2018-07-23T00:19:11.227Z,0
2018-07-23T00:19:15.224Z,0
2018-07-23T00:19:19.537Z,0
2018-07-23T00:19:23.841Z,0
2018-07-23T00:19:28.053Z,0
2018-07-23T00:19:32.250Z,0
2018-07-23T00:19:36.452Z,0
2018-07-23T00:19:40.761Z,0
2018-07-23T00:19:44.961Z,0
2018-07-23T00:19:49.061Z,0
2018-07-23T00:19:53.391Z,0
2018-07-23T00:19:57.699Z,0
2018-07-23T00:20:01.788Z,0
2018-07-23T00:20:05.995Z,0
2018-07-23T00:20:10.194Z,0
2018-07-23T00:20:14.399Z,0
2018-07-23T00:20:18.604Z,0
2018-07-23T00:20:22.969Z,0
2018-07-23T00:20:27.176Z,0
2018-07-23T00:20:31.389Z,0
2018-07-23T00:20:35.700Z,0
2018-07-23T00:20:39.797Z,0
2018-07-23T00:20:44.104Z,0
2018-07-23T00:20:48.409Z,0
2018-07-23T00:20:52.612Z,0
2018-07-23T00:20:56.819Z,0
2018-07-23T00:21:01.127Z,0
2018-07-23T00:21:05.234Z,0
2018-07-23T00:21:09.445Z,0
2018-07-23T00:21:13.442Z,0
2018-07-23T00:21:17.642Z,0
2018-07-23T00:21:21.733Z,0
2018-07-23T00:21:25.936Z,0
2018-07-23T00:21:30.146Z,0
2018-07-23T00:21:34.341Z,0
2018-07-23T00:21:38.538Z,0
2018-07-23T00:21:42.741Z,0
2018-07-23T00:21:46.837Z,0
2018-07-23T00:21:51.141Z,0
2018-07-23T00:21:55.452Z,0
2018-07-23T00:21:59.544Z,0
2018-07-23T00:22:03.746Z,0
2018-07-23T00:22:07.839Z,0
2018-07-23T00:22:12.163Z,0
2018-07-23T00:22:16.481Z,0
2018-07-23T00:22:20.581Z,0
2018-07-23T00:22:24.890Z,0
2018-07-23T00:22:28.987Z,0
2018-07-23T00:22:33.185Z,0
2018-07-23T00:22:37.284Z,0
2018-07-23T00:22:41.604Z,0
2018-07-23T00:22:45.697Z,0
2018-07-23T00:22:49.794Z,0
2018-07-23T00:22:54.097Z,0
2018-07-23T00:22:58.294Z,0
2018-07-23T00:23:02.442Z,0
2018-07-23T00:23:06.749Z,0
2018-07-23T00:23:10.851Z,0
2018-07-23T00:23:15.172Z,0
2018-07-23T00:23:19.482Z,0
2018-07-23T00:23:23.681Z,0
2018-07-23T00:23:27.891Z,0
2018-07-23T00:23:32.087Z,0
2018-07-23T00:23:36.290Z,0
2018-07-23T00:23:40.277Z,0
2018-07-23T00:23:44.484Z,0
2018-07-23T00:23:48.682Z,0
2018-07-23T00:23:52.886Z,0
2018-07-23T00:23:57.086Z,0
2018-07-23T00:24:01.181Z,0
2018-07-23T00:24:05.285Z,0
2018-07-23T00:24:09.488Z,0
2018-07-23T00:24:13.578Z,0
2018-07-23T00:24:17.784Z,0
2018-07-23T00:24:22.095Z,0
2018-07-23T00:24:26.245Z,0
2018-07-23T00:24:30.448Z,0
2018-07-23T00:24:34.683Z,0
2018-07-23T00:24:38.783Z,0
2018-07-23T00:24:42.986Z,0
2018-07-23T00:24:47.291Z,0
2018-07-23T00:24:51.492Z,0
2018-07-23T00:24:55.694Z,0
2018-07-23T00:25:00.012Z,0
2018-07-23T00:25:04.000Z,0
2018-07-23T00:25:08.097Z,0
2018-07-23T00:25:12.193Z,0
2018-07-23T00:25:16.182Z,0
2018-07-23T00:25:20.384Z,0
2018-07-23T00:25:24.584Z,0
2018-07-23T00:25:28.784Z,0
2018-07-23T00:25:32.999Z,0
2018-07-23T00:25:37.093Z,0
2018-07-23T00:25:41.296Z,0
2018-07-23T00:25:45.498Z,0
2018-07-23T00:25:49.802Z,0
2018-07-23T00:25:54.045Z,0
2018-07-23T00:25:58.249Z,0
2018-07-23T00:26:02.238Z,0
2018-07-23T00:26:06.335Z,0
2018-07-23T00:26:10.434Z,0
2018-07-23T00:26:14.642Z,0
2018-07-23T00:26:18.738Z,0
2018-07-23T00:26:23.079Z,0
2018-07-23T00:26:27.278Z,0
2018-07-23T00:26:31.600Z,0
2018-07-23T00:26:35.918Z,0
2018-07-23T00:26:40.116Z,0
2018-07-23T00:26:44.324Z,0
2018-07-23T00:26:48.632Z,0
2018-07-23T00:26:52.939Z,0
2018-07-23T00:26:57.243Z,0
2018-07-23T00:27:01.546Z,0
2018-07-23T00:27:05.539Z,0
2018-07-23T00:27:09.860Z,0
2018-07-23T00:27:13.955Z,0
2018-07-23T00:27:18.053Z,0
2018-07-23T00:27:22.258Z,0
2018-07-23T00:27:26.461Z,0
2018-07-23T00:27:30.561Z,0
2018-07-23T00:27:34.870Z,0
2018-07-23T00:27:39.073Z,0
2018-07-23T00:27:43.281Z,0
2018-07-23T00:27:47.489Z,0
2018-07-23T00:27:51.579Z,0
2018-07-23T00:27:55.889Z,0
2018-07-23T00:27:59.987Z,0
2018-07-23T00:28:04.197Z,0
2018-07-23T00:28:08.193Z,0
2018-07-23T00:28:12.397Z,0
2018-07-23T00:28:16.601Z,0
2018-07-23T00:28:20.906Z,0
2018-07-23T00:28:25.214Z,0
2018-07-23T00:28:29.306Z,0
2018-07-23T00:28:33.637Z,0
2018-07-23T00:28:37.951Z,0
2018-07-23T00:28:42.261Z,0
2018-07-23T00:28:46.461Z,0
2018-07-23T00:28:50.658Z,0
2018-07-23T00:28:54.969Z,0
2018-07-23T00:28:59.171Z,0
2018-07-23T00:29:03.373Z,0
2018-07-23T00:29:07.466Z,0
2018-07-23T00:29:11.679Z,0
2018-07-23T00:29:15.889Z,0
2018-07-23T00:29:20.093Z,0
2018-07-23T00:29:24.405Z,0
2018-07-23T00:29:28.495Z,0
2018-07-23T00:29:32.805Z,0
2018-07-23T00:29:37.114Z,0
2018-07-23T00:29:41.425Z,0
2018-07-23T00:29:45.416Z,0
2018-07-23T00:29:49.725Z,0
2018-07-23T00:29:53.931Z,0
2018-07-23T00:29:58.240Z,0
2018-07-23T00:30:02.549Z,0
2018-07-23T00:30:06.751Z,0
2018-07-23T00:30:10.956Z,0
2018-07-23T00:30:15.046Z,0
2018-07-23T00:30:19.148Z,0
2018-07-23T00:30:23.352Z,0
2018-07-23T00:30:27.550Z,0
2018-07-23T00:30:31.858Z,0
2018-07-23T00:30:35.955Z,0
2018-07-23T00:30:40.261Z,0
2018-07-23T00:30:44.471Z,0
2018-07-23T00:30:48.675Z,0
2018-07-23T00:30:52.982Z,0
2018-07-23T00:30:57.296Z,0
2018-07-23T00:31:01.398Z,0
2018-07-23T00:31:05.498Z,0
2018-07-23T00:31:09.805Z,0
2018-07-23T00:31:14.009Z,0
2018-07-23T00:31:18.102Z,0
2018-07-23T00:31:22.301Z,0
2018-07-23T00:31:26.607Z,0
2018-07-23T00:31:30.922Z,0
2018-07-23T00:31:35.122Z,0
2018-07-23T00:31:39.436Z,0
2018-07-23T00:31:43.637Z,0
2018-07-23T00:31:47.943Z,0
2018-07-23T00:31:52.253Z,0
2018-07-23T00:31:56.452Z,0
2018-07-23T00:32:00.438Z,0
2018-07-23T00:32:04.636Z,0
2018-07-23T00:32:08.727Z,0
2018-07-23T00:32:12.718Z,0
2018-07-23T00:32:16.815Z,0
2018-07-23T00:32:21.019Z,0
2018-07-23T00:32:25.217Z,0
2018-07-23T00:32:29.522Z,0
2018-07-23T00:32:33.723Z,0
2018-07-23T00:32:38.040Z,0
2018-07-23T00:32:42.127Z,0
2018-07-23T00:32:46.434Z,0
2018-07-23T00:32:50.533Z,0
2018-07-23T00:32:54.839Z,0
2018-07-23T00:32:59.147Z,0
2018-07-23T00:33:03.136Z,0
2018-07-23T00:33:07.335Z,0
2018-07-23T00:33:11.541Z,0
2018-07-23T00:33:15.744Z,0
2018-07-23T00:33:19.947Z,0
2018-07-23T00:33:24.143Z,0
2018-07-23T00:33:28.239Z,0
2018-07-23T00:33:32.436Z,0
2018-07-23T00:33:36.643Z,0
2018-07-23T00:33:40.841Z,0
2018-07-23T00:33:45.148Z,0
2018-07-23T00:33:49.247Z,0
2018-07-23T00:33:53.458Z,0
2018-07-23T00:33:57.665Z,0
2018-07-23T00:34:01.867Z,0
2018-07-23T00:34:05.756Z,0
2018-07-23T00:34:09.954Z,0
2018-07-23T00:34:14.266Z,0
2018-07-23T00:34:18.464Z,0
2018-07-23T00:34:22.666Z,0
2018-07-23T00:34:26.866Z,0
2018-07-23T00:34:30.958Z,0
2018-07-23T00:34:35.266Z,0
2018-07-23T00:34:39.470Z,0
2018-07-23T00:34:43.608Z,0
2018-07-23T00:34:47.807Z,0
2018-07-23T00:34:52.014Z,0
2018-07-23T00:34:56.226Z,0
2018-07-23T00:35:00.537Z,0
2018-07-23T00:35:04.632Z,0
2018-07-23T00:35:08.620Z,0
2018-07-23T00:35:12.936Z,0
2018-07-23T00:35:17.135Z,0
2018-07-23T00:35:21.230Z,0
2018-07-23T00:35:25.428Z,0
2018-07-23T00:35:29.734Z,0
2018-07-23T00:35:34.052Z,0
2018-07-23T00:35:38.256Z,0
2018-07-23T00:35:42.463Z,0
2018-07-23T00:35:46.771Z,0
2018-07-23T00:35:51.072Z,0
2018-07-23T00:35:55.383Z,0
2018-07-23T00:35:59.473Z,0
2018-07-23T00:36:03.572Z,0
2018-07-23T00:36:07.570Z,0
2018-07-23T00:36:11.451Z,0
2018-07-23T00:36:15.546Z,0
2018-07-23T00:36:19.848Z,0
2018-07-23T00:36:24.048Z,0
2018-07-23T00:36:28.255Z,0
2018-07-23T00:36:32.347Z,0
2018-07-23T00:36:36.446Z,0
2018-07-23T00:36:40.763Z,0
2018-07-23T00:36:44.967Z,0
2018-07-23T00:36:49.279Z,0
2018-07-23T00:36:53.477Z,0
2018-07-23T00:36:57.780Z,0
2018-07-23T00:37:01.979Z,0
2018-07-23T00:37:06.071Z,0
2018-07-23T00:37:10.381Z,0
2018-07-23T00:37:14.475Z,0
2018-07-23T00:37:18.578Z,0
2018-07-23T00:37:22.818Z,0
2018-07-23T00:37:27.133Z,0
2018-07-23T00:37:31.227Z,0
2018-07-23T00:37:35.538Z,0
2018-07-23T00:37:39.853Z,0
2018-07-23T00:37:43.963Z,0
2018-07-23T00:37:48.195Z,0
2018-07-23T00:37:52.503Z,0
2018-07-23T00:37:56.805Z,0
2018-07-23T00:38:01.113Z,0
2018-07-23T00:38:05.102Z,0
2018-07-23T00:38:09.409Z,0
2018-07-23T00:38:13.606Z,0
2018-07-23T00:38:17.820Z,0
2018-07-23T00:38:21.806Z,0
2018-07-23T00:38:26.017Z,0
2018-07-23T00:38:30.210Z,0
2018-07-23T00:38:34.413Z,0
2018-07-23T00:38:38.513Z,0
2018-07-23T00:38:42.607Z,0
2018-07-23T00:38:46.816Z,0
2018-07-23T00:38:51.015Z,0
2018-07-23T00:38:55.319Z,0
2018-07-23T00:38:59.530Z,0
2018-07-23T00:39:03.788Z,0
2018-07-23T00:39:08.102Z,0
2018-07-23T00:39:12.466Z,0
2018-07-23T00:39:16.455Z,0
2018-07-23T00:39:20.653Z,0
2018-07-23T00:39:24.864Z,0
2018-07-23T00:39:29.066Z,0
2018-07-23T00:39:33.267Z,0
2018-07-23T00:39:37.575Z,0
2018-07-23T00:39:41.879Z,0
2018-07-23T00:39:45.869Z,0
2018-07-23T00:39:50.173Z,0
2018-07-23T00:39:54.269Z,0
2018-07-23T00:39:58.470Z,0
2018-07-23T00:40:02.677Z,0
2018-07-23T00:40:06.887Z,0
2018-07-23T00:40:10.981Z,0
2018-07-23T00:40:15.229Z,0
2018-07-23T00:40:19.326Z,0
2018-07-23T00:40:23.433Z,0
2018-07-23T00:40:27.632Z,0
2018-07-23T00:40:31.837Z,0
2018-07-23T00:40:36.030Z,0
2018-07-23T00:40:40.332Z,0
2018-07-23T00:40:44.644Z,0
2018-07-23T00:40:48.964Z,0
2018-07-23T00:40:52.846Z,0
2018-07-23T00:40:57.149Z,0
2018-07-23T00:41:01.352Z,0
2018-07-23T00:41:05.462Z,0
2018-07-23T00:41:09.667Z,0
2018-07-23T00:41:13.972Z,0
2018-07-23T00:41:17.963Z,0
2018-07-23T00:41:22.060Z,0
2018-07-23T00:41:26.160Z,0
2018-07-23T00:41:30.467Z,0
2018-07-23T00:41:34.461Z,0
2018-07-23T00:41:38.766Z,0
2018-07-23T00:41:42.969Z,0
2018-07-23T00:41:47.202Z,0
2018-07-23T00:41:51.402Z,0
2018-07-23T00:41:55.500Z,0
2018-07-23T00:41:59.703Z,0
2018-07-23T00:42:03.805Z,0
2018-07-23T00:42:08.002Z,0
2018-07-23T00:42:11.988Z,0
2018-07-23T00:42:16.298Z,0
2018-07-23T00:42:20.602Z,0
2018-07-23T00:42:24.908Z,0
2018-07-23T00:42:29.005Z,0
2018-07-23T00:42:33.205Z,0
2018-07-23T00:42:37.397Z,0
2018-07-23T00:42:41.595Z,0
2018-07-23T00:42:45.905Z,0
2018-07-23T00:42:50.219Z,0
2018-07-23T00:42:54.522Z,0
2018-07-23T00:42:58.839Z,0
2018-07-23T00:43:02.938Z,0
2018-07-23T00:43:07.035Z,0
2018-07-23T00:43:11.347Z,0
2018-07-23T00:43:15.652Z,0
2018-07-23T00:43:19.638Z,0
2018-07-23T00:43:23.948Z,0
2018-07-23T00:43:28.041Z,0
2018-07-23T00:43:32.139Z,0
2018-07-23T00:43:36.341Z,0
2018-07-23T00:43:40.341Z,0
2018-07-23T00:43:44.651Z,0
2018-07-23T00:43:48.787Z,0
2018-07-23T00:43:52.989Z,0
2018-07-23T00:43:57.189Z,0
2018-07-23T00:44:01.283Z,0
2018-07-23T00:44:05.288Z,0
2018-07-23T00:44:09.492Z,0
2018-07-23T00:44:13.799Z,0
2018-07-23T00:44:17.790Z,0
2018-07-23T00:44:22.102Z,0
2018-07-23T00:44:26.308Z,0
2018-07-23T00:44:30.507Z,0
2018-07-23T00:44:34.814Z,0
2018-07-23T00:44:39.015Z,0
2018-07-23T00:44:43.212Z,0
2018-07-23T00:44:47.312Z,0
2018-07-23T00:44:51.512Z,0
2018-07-23T00:44:55.822Z,0
2018-07-23T00:45:00.220Z,0
2018-07-23T00:45:04.417Z,0
2018-07-23T00:45:08.737Z,0
2018-07-23T00:45:12.940Z,0
2018-07-23T00:45:17.036Z,0
2018-07-23T00:45:21.230Z,0
2018-07-23T00:45:25.321Z,0
2018-07-23T00:45:29.420Z,0
2018-07-23T00:45:33.620Z,0
2018-07-23T00:45:37.925Z,0
2018-07-23T00:45:42.232Z,0
2018-07-23T00:45:46.536Z,0
2018-07-23T00:45:50.748Z,0
2018-07-23T00:45:55.074Z,0
2018-07-23T00:45:59.385Z,0
2018-07-23T00:46:03.589Z,0
2018-07-23T00:46:07.680Z,0
2018-07-23T00:46:11.991Z,0
2018-07-23T00:46:16.190Z,0
2018-07-23T00:46:20.497Z,0
2018-07-23T00:46:24.803Z,0
2018-07-23T00:46:29.114Z,0
2018-07-23T00:46:33.312Z,0
2018-07-23T00:46:37.311Z,0
2018-07-23T00:46:41.512Z,0
2018-07-23T00:46:45.816Z,0
2018-07-23T00:46:50.124Z,0
2018-07-23T00:46:54.120Z,0
2018-07-23T00:46:58.211Z,0
2018-07-23T00:47:02.302Z,0
2018-07-23T00:47:06.501Z,0
2018-07-23T00:47:10.810Z,0
2018-07-23T00:47:15.116Z,0
2018-07-23T00:47:19.436Z,0
2018-07-23T00:47:23.637Z,0
2018-07-23T00:47:27.736Z,0
2018-07-23T00:47:31.940Z,0
2018-07-23T00:47:36.035Z,0
2018-07-23T00:47:40.237Z,0
2018-07-23T00:47:44.549Z,0
2018-07-23T00:47:48.649Z,0
2018-07-23T00:47:52.848Z,0
2018-07-23T00:47:57.157Z,0
2018-07-23T00:48:01.460Z,0
2018-07-23T00:48:05.552Z,0
2018-07-23T00:48:09.755Z,0
2018-07-23T00:48:13.954Z,0
2018-07-23T00:48:18.265Z,0
2018-07-23T00:48:22.576Z,0
2018-07-23T00:48:26.571Z,0
2018-07-23T00:48:30.885Z,0
2018-07-23T00:48:35.191Z,0
2018-07-23T00:48:39.281Z,0
2018-07-23T00:48:43.378Z,0
2018-07-23T00:48:47.483Z,0
2018-07-23T00:48:51.792Z,0
2018-07-23T00:48:55.988Z,0
2018-07-23T00:48:59.977Z,0
2018-07-23T00:49:04.288Z,0
2018-07-23T00:49:08.485Z,0
2018-07-23T00:49:12.690Z,0
2018-07-23T00:49:16.997Z,0
2018-07-23T00:49:21.091Z,0
2018-07-23T00:49:25.293Z,0
2018-07-23T00:49:29.493Z,0
2018-07-23T00:49:33.588Z,0
2018-07-23T00:49:37.783Z,0
2018-07-23T00:49:41.999Z,0
2018-07-23T00:49:46.095Z,0
2018-07-23T00:49:50.292Z,0
2018-07-23T00:49:54.644Z,0
2018-07-23T00:49:58.950Z,0
2018-07-23T00:50:02.939Z,0
2018-07-23T00:50:06.968Z,0
2018-07-23T00:50:11.273Z,0
2018-07-23T00:50:15.367Z,0
2018-07-23T00:50:19.575Z,0
2018-07-23T00:50:23.882Z,0
2018-07-23T00:50:28.081Z,0
2018-07-23T00:50:32.187Z,0
2018-07-23T00:50:36.504Z,0
2018-07-23T00:50:40.602Z,0
2018-07-23T00:50:44.803Z,0
2018-07-23T00:50:49.005Z,0
2018-07-23T00:50:53.205Z,0
2018-07-23T00:50:57.407Z,0
2018-07-23T00:51:01.725Z,0
2018-07-23T00:51:05.927Z,0
2018-07-23T00:51:10.016Z,0
2018-07-23T00:51:14.229Z,0
2018-07-23T00:51:18.432Z,0
2018-07-23T00:51:22.737Z,0
2018-07-23T00:51:26.936Z,0
2018-07-23T00:51:31.147Z,0
2018-07-23T00:51:35.458Z,0
2018-07-23T00:51:39.654Z,0
2018-07-23T00:51:43.856Z,0
2018-07-23T00:51:47.950Z,0
2018-07-23T00:51:52.285Z,0
2018-07-23T00:51:56.503Z,0
2018-07-23T00:52:00.822Z,0
2018-07-23T00:52:04.812Z,0
2018-07-23T00:52:09.121Z,0
2018-07-23T00:52:13.316Z,0
2018-07-23T00:52:17.411Z,0
2018-07-23T00:52:21.610Z,0
2018-07-23T00:52:25.705Z,0
2018-07-23T00:52:29.805Z,0
2018-07-23T00:52:34.120Z,0
2018-07-23T00:52:38.209Z,0
2018-07-23T00:52:42.306Z,0
2018-07-23T00:52:46.614Z,0
2018-07-23T00:52:50.823Z,0
2018-07-23T00:52:54.918Z,0
2018-07-23T00:52:59.221Z,0
2018-07-23T00:53:03.208Z,0
2018-07-23T00:53:06.990Z,0
2018-07-23T00:53:11.088Z,0
2018-07-23T00:53:15.286Z,0
2018-07-23T00:53:19.591Z,0
2018-07-23T00:53:23.790Z,0
2018-07-23T00:53:27.670Z,0
2018-07-23T00:53:31.873Z,0
2018-07-23T00:53:35.983Z,0
2018-07-23T00:53:40.182Z,0
2018-07-23T00:53:44.395Z,0
2018-07-23T00:53:48.709Z,0
2018-07-23T00:53:52.824Z,0
2018-07-23T00:53:57.023Z,0
2018-07-23T00:54:01.228Z,0
2018-07-23T00:54:05.440Z,0
2018-07-23T00:54:09.544Z,0
2018-07-23T00:54:13.744Z,0
2018-07-23T00:54:18.049Z,0
2018-07-23T00:54:22.281Z,0
2018-07-23T00:54:26.268Z,0
2018-07-23T00:54:30.468Z,0
2018-07-23T00:54:34.771Z,0
2018-07-23T00:54:39.083Z,0
2018-07-23T00:54:43.282Z,0
2018-07-23T00:54:47.477Z,0
2018-07-23T00:54:51.676Z,0
2018-07-23T00:54:55.980Z,0
2018-07-23T00:55:00.291Z,0
2018-07-23T00:55:04.392Z,0
2018-07-23T00:55:08.701Z,0
2018-07-23T00:55:12.902Z,0
2018-07-23T00:55:17.213Z,0
2018-07-23T00:55:21.202Z,0
2018-07-23T00:55:25.297Z,0
2018-07-23T00:55:29.607Z,0
2018-07-23T00:55:33.918Z,0
2018-07-23T00:55:38.183Z,0
2018-07-23T00:55:42.382Z,0
2018-07-23T00:55:46.474Z,0
2018-07-23T00:55:50.800Z,0
2018-07-23T00:55:54.996Z,0
2018-07-23T00:55:59.309Z,0
2018-07-23T00:56:03.618Z,0
2018-07-23T00:56:07.886Z,0
2018-07-23T00:56:12.195Z,0
2018-07-23T00:56:16.505Z,0
2018-07-23T00:56:20.813Z,0
2018-07-23T00:56:24.906Z,0
2018-07-23T00:56:29.209Z,0
2018-07-23T00:56:33.408Z,0
2018-07-23T00:56:37.615Z,0
2018-07-23T00:56:41.823Z,0
2018-07-23T00:56:46.040Z,0
2018-07-23T00:56:50.137Z,0
2018-07-23T00:56:54.447Z,0
2018-07-23T00:56:58.432Z,0
2018-07-23T00:57:02.524Z,0
2018-07-23T00:57:06.830Z,0
2018-07-23T00:57:10.924Z,0
2018-07-23T00:57:15.128Z,0
2018-07-23T00:57:19.330Z,0
2018-07-23T00:57:23.534Z,0
2018-07-23T00:57:27.736Z,0
2018-07-23T00:57:32.051Z,0
2018-07-23T00:57:36.258Z,0
2018-07-23T00:57:40.579Z,0
2018-07-23T00:57:44.674Z,0
2018-07-23T00:57:48.871Z,0
2018-07-23T00:57:53.168Z,0
2018-07-23T00:57:57.366Z,0
2018-07-23T00:58:01.670Z,0
2018-07-23T00:58:05.776Z,0
2018-07-23T00:58:09.991Z,0
2018-07-23T00:58:14.193Z,0
2018-07-23T00:58:18.433Z,0
2018-07-23T00:58:22.747Z,0
2018-07-23T00:58:26.946Z,0
2018-07-23T00:58:31.146Z,0
2018-07-23T00:58:35.453Z,0
2018-07-23T00:58:39.755Z,0
2018-07-23T00:58:43.752Z,0
2018-07-23T00:58:48.058Z,0
2018-07-23T00:58:52.371Z,0
2018-07-23T00:58:56.688Z,0
2018-07-23T00:59:00.779Z,0
2018-07-23T00:59:04.970Z,0
2018-07-23T00:59:09.180Z,0
2018-07-23T00:59:13.495Z,0
2018-07-23T00:59:17.587Z,0
2018-07-23T00:59:21.781Z,0
2018-07-23T00:59:25.873Z,0
2018-07-23T00:59:29.860Z,0
2018-07-23T00:59:34.060Z,0
2018-07-23T00:59:38.253Z,0
2018-07-23T00:59:42.453Z,0
2018-07-23T00:59:46.656Z,0
2018-07-23T00:59:50.971Z,0
2018-07-23T00:59:55.170Z,0
2018-07-23T00:59:59.261Z,0
2018-07-23T01:00:03.524Z,0
2018-07-23T01:00:07.734Z,0
2018-07-23T01:00:11.825Z,0
2018-07-23T01:00:15.927Z,0
2018-07-23T01:00:20.021Z,0
2018-07-23T01:00:24.224Z,0
2018-07-23T01:00:28.452Z,0
2018-07-23T01:00:32.652Z,0
2018-07-23T01:00:36.856Z,0
2018-07-23T01:00:40.841Z,0
2018-07-23T01:00:45.042Z,0
2018-07-23T01:00:49.253Z,0
2018-07-23T01:00:53.504Z,0
2018-07-23T01:00:57.822Z,0
2018-07-23T01:01:02.023Z,0
2018-07-23T01:01:06.007Z,0
2018-07-23T01:01:10.311Z,0
2018-07-23T01:01:14.520Z,0
2018-07-23T01:01:18.732Z,0
2018-07-23T01:01:23.079Z,0
2018-07-23T01:01:27.174Z,0
2018-07-23T01:01:31.379Z,0
2018-07-23T01:01:35.688Z,0
2018-07-23T01:01:39.778Z,0
2018-07-23T01:01:44.129Z,0
2018-07-23T01:01:48.434Z,0
2018-07-23T01:01:52.743Z,0